Time;durP1;ratioP1;P1;durP2;ratioP2;P2;SDS_P1;SDS_P2;PMS_P1;PMS_P2;Temp;Humidity;BMP_temperature;BMP_pressure;BME280_temperature;BME280_humidity;BME280_pressure;Samples;Min_cycle;Max_cycle;Signal;HPM_P1;HPM_P2
2021/07/05 00:00:16;;;;;;;2.90;1.77;;;21.80;62.70;;;;;;5032236;28;20039;-69
2021/07/05 00:02:43;;;;;;;2.53;1.77;;;21.80;62.70;;;;;;5033416;28;20103;-69
2021/07/05 00:05:11;;;;;;;3.95;1.85;;;21.80;62.70;;;;;;5033630;28;20532;-69
2021/07/05 00:07:37;;;;;;;4.05;1.92;;;21.80;62.70;;;;;;5033459;28;20474;-68
2021/07/05 00:10:07;;;;;;;3.35;1.77;;;21.80;62.70;;;;;;5033555;28;20021;-69
2021/07/05 00:12:33;;;;;;;2.88;1.80;;;21.70;62.80;;;;;;5033610;28;20366;-69
2021/07/05 00:14:59;;;;;;;3.78;1.90;;;21.80;62.80;;;;;;5033651;28;20041;-69
2021/07/05 00:17:24;;;;;;;3.47;1.73;;;21.80;62.70;;;;;;5034810;28;20021;-69
2021/07/05 00:19:50;;;;;;;3.97;1.92;;;21.70;62.70;;;;;;5034729;28;20032;-69
2021/07/05 00:22:16;;;;;;;2.97;1.80;;;21.80;62.80;;;;;;5044779;28;20029;-68
2021/07/05 00:24:41;;;;;;;2.47;1.50;;;21.70;62.80;;;;;;5044080;28;20039;-69
2021/07/05 00:27:07;;;;;;;2.70;1.50;;;21.80;62.80;;;;;;5041878;28;20028;-69
2021/07/05 00:29:32;;;;;;;2.90;1.70;;;21.80;62.80;;;;;;5041702;28;20056;-69
2021/07/05 00:31:58;;;;;;;3.25;1.80;;;21.70;62.80;;;;;;5042632;28;20096;-69
2021/07/05 00:34:24;;;;;;;4.00;2.00;;;21.70;62.80;;;;;;5038812;28;20083;-70
2021/07/05 00:36:49;;;;;;;2.72;1.55;;;21.70;62.80;;;;;;5036412;28;20060;-70
2021/07/05 00:39:15;;;;;;;3.92;1.50;;;21.70;62.80;;;;;;5037719;28;20025;-69
2021/07/05 00:41:41;;;;;;;2.72;1.50;;;21.70;62.80;;;;;;5041848;28;20033;-69
2021/07/05 00:44:06;;;;;;;4.07;2.05;;;21.70;62.80;;;;;;5042423;28;20045;-70
2021/07/05 00:46:32;;;;;;;3.15;1.80;;;21.70;62.80;;;;;;5043292;28;20484;-69
2021/07/05 00:48:58;;;;;;;4.28;1.70;;;21.70;62.90;;;;;;5043449;28;20022;-69
2021/07/05 00:51:24;;;;;;;2.80;1.73;;;21.70;62.90;;;;;;5043401;28;20045;-68
2021/07/05 00:53:51;;;;;;;3.28;1.75;;;21.70;62.90;;;;;;5043437;28;20029;-69
2021/07/05 00:56:17;;;;;;;2.42;1.30;;;21.70;62.90;;;;;;5043986;28;20044;-69
2021/07/05 00:58:43;;;;;;;3.00;1.63;;;21.70;62.90;;;;;;5043004;28;20013;-69
2021/07/05 01:01:09;;;;;;;3.40;1.38;;;21.60;62.90;;;;;;5042871;28;20075;-70
2021/07/05 01:03:34;;;;;;;3.08;1.70;;;21.70;62.90;;;;;;5042384;28;20025;-70
2021/07/05 01:06:01;;;;;;;3.45;1.85;;;21.70;62.90;;;;;;5043239;28;20030;-69
2021/07/05 01:08:26;;;;;;;3.10;1.70;;;21.60;62.90;;;;;;5040514;28;20046;-68
2021/07/05 01:10:52;;;;;;;3.35;1.80;;;21.60;62.90;;;;;;5041054;28;20389;-68
2021/07/05 01:13:18;;;;;;;2.97;1.63;;;21.60;62.90;;;;;;5041567;28;20059;-70
2021/07/05 01:15:43;;;;;;;3.45;1.67;;;21.60;62.90;;;;;;5043769;28;20068;-70
2021/07/05 01:18:09;;;;;;;2.83;1.63;;;21.60;62.90;;;;;;5043326;28;20072;-70
2021/07/05 01:20:38;;;;;;;3.92;1.48;;;21.60;62.90;;;;;;5045803;28;20440;-70
2021/07/05 01:23:08;;;;;;;2.92;1.67;;;21.60;62.90;;;;;;5044740;28;20049;-70
2021/07/05 01:25:34;;;;;;;3.25;1.88;;;21.60;63.00;;;;;;5043710;28;20026;-70
2021/07/05 01:28:00;;;;;;;2.97;1.50;;;21.60;63.00;;;;;;5043329;28;20053;-70
2021/07/05 01:30:27;;;;;;;2.95;1.60;;;21.60;62.90;;;;;;5043370;28;20021;-70
2021/07/05 01:32:56;;;;;;;3.50;1.80;;;21.60;63.00;;;;;;5042110;28;20181;-70
2021/07/05 01:35:21;;;;;;;3.10;1.90;;;21.60;63.00;;;;;;5038627;28;20038;-70
2021/07/05 01:37:47;;;;;;;3.53;1.92;;;21.60;63.00;;;;;;5037662;28;20032;-70
2021/07/05 01:40:18;;;;;;;2.97;1.55;;;21.60;63.00;;;;;;5037751;28;20049;-70
2021/07/05 01:42:54;;;;;;;3.75;1.67;;;21.50;63.00;;;;;;5037293;28;20113;-70
2021/07/05 01:45:23;;;;;;;2.60;1.50;;;21.60;63.00;;;;;;5037462;28;20032;-70
2021/07/05 01:47:50;;;;;;;2.78;1.40;;;21.50;63.10;;;;;;5037259;28;20049;-70
2021/07/05 01:50:16;;;;;;;3.25;1.60;;;21.60;63.00;;;;;;5037024;28;20489;-70
2021/07/05 01:52:42;;;;;;;2.60;1.35;;;21.50;63.10;;;;;;5037146;28;20048;-69
2021/07/05 01:55:09;;;;;;;3.13;1.60;;;21.50;63.00;;;;;;5037045;28;20044;-70
2021/07/05 01:57:35;;;;;;;3.05;1.60;;;21.50;63.00;;;;;;5035841;28;20032;-70
2021/07/05 02:00:12;;;;;;;2.90;1.50;;;21.50;63.00;;;;;;5037015;28;20033;-70
2021/07/05 02:02:38;;;;;;;2.72;1.67;;;21.50;63.10;;;;;;5036609;28;20105;-70
2021/07/05 02:05:11;;;;;;;2.55;1.52;;;21.50;63.00;;;;;;5036794;28;20069;-70
2021/07/05 02:07:37;;;;;;;2.50;1.50;;;21.50;63.10;;;;;;5034855;28;20021;-70
2021/07/05 02:10:09;;;;;;;2.47;1.60;;;21.50;63.00;;;;;;5036588;28;20057;-70
2021/07/05 02:12:35;;;;;;;2.45;1.52;;;21.50;63.00;;;;;;5034845;28;20021;-70
2021/07/05 02:15:03;;;;;;;3.42;1.60;;;21.50;63.00;;;;;;5034992;28;20065;-70
2021/07/05 02:17:28;;;;;;;2.25;1.30;;;21.50;63.00;;;;;;5034954;28;20427;-70
2021/07/05 02:19:54;;;;;;;2.50;1.45;;;21.50;63.00;;;;;;5034428;28;20029;-70
2021/07/05 02:22:20;;;;;;;3.38;1.70;;;21.50;63.10;;;;;;5034780;28;20026;-70
2021/07/05 02:24:45;;;;;;;3.17;1.80;;;21.50;63.10;;;;;;5034853;28;20124;-70
2021/07/05 02:27:11;;;;;;;3.00;1.35;;;21.50;63.00;;;;;;5034640;28;20516;-69
2021/07/05 02:29:37;;;;;;;2.63;1.40;;;21.50;63.10;;;;;;5034770;28;20060;-70
2021/07/05 02:32:04;;;;;;;3.30;1.30;;;21.50;63.10;;;;;;5034400;28;20500;-70
2021/07/05 02:34:30;;;;;;;3.20;1.40;;;21.50;63.10;;;;;;5034312;28;20037;-70
2021/07/05 02:36:56;;;;;;;2.92;1.40;;;21.50;63.10;;;;;;5034607;28;20030;-70
2021/07/05 02:39:22;;;;;;;2.85;1.35;;;21.50;63.10;;;;;;5034437;28;20094;-70
2021/07/05 02:41:47;;;;;;;2.20;1.40;;;21.50;63.10;;;;;;5034516;28;20029;-69
2021/07/05 02:44:13;;;;;;;2.75;1.50;;;21.50;63.10;;;;;;5034594;28;20032;-70
2021/07/05 02:46:39;;;;;;;2.83;1.50;;;21.40;63.10;;;;;;5034490;28;20028;-70
2021/07/05 02:49:05;;;;;;;3.00;1.33;;;21.50;63.10;;;;;;5034565;28;20112;-70
2021/07/05 02:51:31;;;;;;;3.75;1.60;;;21.50;63.10;;;;;;5034551;28;20168;-70
2021/07/05 02:53:56;;;;;;;3.03;1.40;;;21.50;63.10;;;;;;5034307;28;20026;-70
2021/07/05 02:56:22;;;;;;;3.92;1.40;;;21.50;63.10;;;;;;5034192;28;20037;-70
2021/07/05 02:58:48;;;;;;;3.05;1.55;;;21.40;63.10;;;;;;5034234;28;20018;-70
2021/07/05 03:01:13;;;;;;;3.00;1.58;;;21.40;63.10;;;;;;5034352;28;20025;-70
2021/07/05 03:03:39;;;;;;;3.45;1.55;;;21.40;63.10;;;;;;5033989;28;20025;-70
2021/07/05 03:06:04;;;;;;;2.80;1.52;;;21.40;63.20;;;;;;5034042;28;20040;-70
2021/07/05 03:08:30;;;;;;;3.22;1.75;;;21.40;63.20;;;;;;5033948;28;20028;-70
2021/07/05 03:10:56;;;;;;;2.20;1.25;;;21.40;63.20;;;;;;5033793;28;20108;-69
2021/07/05 03:13:21;;;;;;;3.35;1.70;;;21.40;63.20;;;;;;5033912;28;20017;-70
2021/07/05 03:15:50;;;;;;;4.95;1.50;;;21.40;63.10;;;;;;5032350;28;20049;-69
2021/07/05 03:18:16;;;;;;;2.90;1.60;;;21.40;63.20;;;;;;5034025;28;20029;-70
2021/07/05 03:20:45;;;;;;;2.95;1.52;;;21.40;63.20;;;;;;5033756;28;20029;-70
2021/07/05 03:23:15;;;;;;;3.00;1.60;;;21.40;63.20;;;;;;5033689;28;20029;-70
2021/07/05 03:25:41;;;;;;;2.30;1.20;;;21.40;63.20;;;;;;5033700;28;20037;-70
2021/07/05 03:28:09;;;;;;;2.22;1.35;;;21.40;63.20;;;;;;5033933;28;20428;-70
2021/07/05 03:30:36;;;;;;;3.25;1.60;;;21.40;63.20;;;;;;5033817;28;20025;-70
2021/07/05 03:33:03;;;;;;;3.67;1.52;;;21.40;63.10;;;;;;5032962;28;20509;-70
2021/07/05 03:35:28;;;;;;;2.40;1.40;;;21.40;63.20;;;;;;5033489;28;20044;-70
2021/07/05 03:37:55;;;;;;;2.75;1.30;;;21.40;63.10;;;;;;5033903;28;20025;-70
2021/07/05 03:40:27;;;;;;;2.15;1.20;;;21.40;63.20;;;;;;5033443;28;20205;-70
2021/07/05 03:42:54;;;;;;;2.83;1.50;;;21.30;63.10;;;;;;5033668;28;20104;-69
2021/07/05 03:45:22;;;;;;;2.63;1.30;;;21.40;63.20;;;;;;5033504;28;20033;-70
2021/07/05 03:47:48;;;;;;;2.60;1.25;;;21.40;63.10;;;;;;5033310;28;20025;-70
2021/07/05 03:50:15;;;;;;;2.45;1.33;;;21.40;63.10;;;;;;5033556;28;20029;-70
2021/07/05 03:52:41;;;;;;;2.00;1.27;;;21.40;63.10;;;;;;5033141;28;20381;-70
2021/07/05 03:55:08;;;;;;;2.38;1.48;;;21.40;63.00;;;;;;5033357;28;20036;-70
2021/07/05 03:57:34;;;;;;;2.53;1.50;;;21.40;63.10;;;;;;5033369;28;20032;-70
2021/07/05 04:00:00;;;;;;;2.70;1.50;;;21.40;63.10;;;;;;5033140;28;20014;-70
2021/07/05 04:02:26;;;;;;;3.22;1.48;;;21.40;63.00;;;;;;5033044;28;20044;-70
2021/07/05 04:04:55;;;;;;;2.10;1.23;;;21.40;63.00;;;;;;5033132;28;20091;-70
2021/07/05 04:07:20;;;;;;;4.75;1.60;;;21.40;62.90;;;;;;5032926;28;20028;-70
2021/07/05 04:09:46;;;;;;;2.22;1.20;;;21.40;62.90;;;;;;5033131;28;20022;-70
2021/07/05 04:12:13;;;;;;;2.45;1.42;;;21.40;62.90;;;;;;5033155;28;20068;-69
2021/07/05 04:14:40;;;;;;;3.47;1.38;;;21.40;62.90;;;;;;5033274;28;20034;-70
2021/07/05 04:17:06;;;;;;;2.30;1.30;;;21.40;62.90;;;;;;5033092;28;20090;-70
2021/07/05 04:19:32;;;;;;;3.97;1.42;;;21.40;62.90;;;;;;5033035;28;20061;-70
2021/07/05 04:21:58;;;;;;;3.25;1.27;;;21.40;62.80;;;;;;5032938;28;20025;-70
2021/07/05 04:24:24;;;;;;;3.50;1.33;;;21.40;62.80;;;;;;5033061;28;20025;-70
2021/07/05 04:26:53;;;;;;;2.25;1.38;;;21.40;62.80;;;;;;5033153;28;20024;-70
2021/07/05 04:29:18;;;;;;;2.90;1.33;;;21.40;62.80;;;;;;5033022;28;20108;-70
2021/07/05 04:31:44;;;;;;;2.17;1.20;;;21.40;62.80;;;;;;5032679;28;20065;-69
2021/07/05 04:34:10;;;;;;;2.60;1.30;;;21.40;62.80;;;;;;5032714;28;20026;-70
2021/07/05 04:36:36;;;;;;;2.40;1.13;;;21.40;62.80;;;;;;5032825;28;20025;-70
2021/07/05 04:39:08;;;;;;;2.03;1.20;;;21.40;62.70;;;;;;5031491;28;20056;-70
2021/07/05 04:41:35;;;;;;;3.47;1.35;;;21.40;62.70;;;;;;5032618;28;20037;-70
2021/07/05 04:44:01;;;;;;;2.08;1.10;;;21.50;62.70;;;;;;5034734;28;20029;-70
2021/07/05 04:46:26;;;;;;;2.63;1.13;;;21.40;62.70;;;;;;5035466;28;20492;-70
2021/07/05 04:48:54;;;;;;;2.00;1.35;;;21.40;62.70;;;;;;5036490;28;20022;-69
2021/07/05 04:51:20;;;;;;;2.42;1.02;;;21.40;62.70;;;;;;5036555;28;20079;-70
2021/07/05 04:53:46;;;;;;;3.90;1.25;;;21.40;62.70;;;;;;5036430;28;20694;-70
2021/07/05 04:56:12;;;;;;;3.47;1.40;;;21.40;62.70;;;;;;5036678;28;20497;-70
2021/07/05 04:58:37;;;;;;;3.22;1.55;;;21.40;62.80;;;;;;5036696;28;20028;-69
2021/07/05 05:01:04;;;;;;;2.42;1.25;;;21.50;62.80;;;;;;5036385;28;20027;-70
2021/07/05 05:03:30;;;;;;;2.65;1.48;;;21.40;62.80;;;;;;5036421;28;20025;-69
2021/07/05 05:05:55;;;;;;;2.90;1.42;;;21.40;62.80;;;;;;5035324;28;20140;-70
2021/07/05 05:08:21;;;;;;;2.28;1.23;;;21.40;62.80;;;;;;5036312;28;20040;-69
2021/07/05 05:10:46;;;;;;;2.08;1.20;;;21.30;62.80;;;;;;5036046;28;20038;-70
2021/07/05 05:13:12;;;;;;;1.55;1.05;;;21.40;62.80;;;;;;5036052;28;20030;-70
2021/07/05 05:15:38;;;;;;;3.42;1.52;;;21.40;62.90;;;;;;5036025;28;20040;-70
2021/07/05 05:18:04;;;;;;;2.45;1.20;;;21.40;62.90;;;;;;5036018;28;20029;-71
2021/07/05 05:20:30;;;;;;;2.30;1.30;;;21.30;62.90;;;;;;5035918;28;20029;-70
2021/07/05 05:22:56;;;;;;;2.85;1.33;;;21.40;62.90;;;;;;5035915;28;20017;-70
2021/07/05 05:25:22;;;;;;;3.30;1.38;;;21.40;63.00;;;;;;5034523;28;20497;-70
2021/07/05 05:27:49;;;;;;;2.08;1.15;;;21.30;63.00;;;;;;5035772;28;20167;-71
2021/07/05 05:30:17;;;;;;;2.65;1.50;;;21.30;63.00;;;;;;5035737;28;20018;-70
2021/07/05 05:32:44;;;;;;;2.88;1.45;;;21.30;63.10;;;;;;5035505;28;20378;-70
2021/07/05 05:35:10;;;;;;;1.60;1.00;;;21.30;63.10;;;;;;5035302;28;20130;-68
2021/07/05 05:37:36;;;;;;;2.97;1.27;;;21.20;63.50;;;;;;5023714;28;20087;-69
2021/07/05 05:40:02;;;;;;;1.95;1.17;;;21.20;63.40;;;;;;5027912;28;20477;-69
2021/07/05 05:42:28;;;;;;;2.38;1.30;;;21.20;63.40;;;;;;5034529;28;20049;-69
2021/07/05 05:44:53;;;;;;;4.45;1.77;;;21.20;63.30;;;;;;5032213;28;20061;-69
2021/07/05 05:47:19;;;;;;;3.17;1.20;;;21.30;63.40;;;;;;5014912;28;20429;-69
2021/07/05 05:49:45;;;;;;;2.88;1.20;;;21.30;63.50;;;;;;5025385;28;20034;-69
2021/07/05 05:52:10;;;;;;;2.63;1.20;;;21.30;63.50;;;;;;5034281;28;20028;-69
2021/07/05 05:54:36;;;;;;;3.40;1.30;;;21.30;63.50;;;;;;5031033;28;20033;-69
2021/07/05 05:57:02;;;;;;;2.63;1.38;;;21.30;63.60;;;;;;5033910;28;20059;-69
2021/07/05 05:59:28;;;;;;;2.00;1.30;;;21.20;63.70;;;;;;5034289;28;20025;-69
2021/07/05 06:01:54;;;;;;;2.38;1.38;;;21.20;63.70;;;;;;5032967;28;20030;-69
2021/07/05 06:04:21;;;;;;;2.85;1.20;;;21.20;63.80;;;;;;5034163;28;20025;-69
2021/07/05 06:06:47;;;;;;;2.28;1.13;;;21.20;63.80;;;;;;5033885;28;20021;-69
2021/07/05 06:09:13;;;;;;;3.63;1.42;;;21.20;63.90;;;;;;5034336;28;20029;-69
2021/07/05 06:11:40;;;;;;;2.63;1.40;;;21.30;63.90;;;;;;5034243;28;20218;-69
2021/07/05 06:14:07;;;;;;;3.05;1.35;;;21.30;63.90;;;;;;5034141;28;20045;-69
2021/07/05 06:16:34;;;;;;;2.47;1.35;;;21.20;63.90;;;;;;5033934;28;20036;-70
2021/07/05 06:19:00;;;;;;;3.63;1.75;;;21.30;64.00;;;;;;5033508;28;20036;-71
2021/07/05 06:21:27;;;;;;;2.38;1.30;;;21.20;64.00;;;;;;5031481;28;20033;-70
2021/07/05 06:23:58;;;;;;;3.35;0.90;;;21.20;64.00;;;;;;5034971;28;20040;-71
2021/07/05 06:26:24;;;;;;;1.60;1.00;;;21.20;64.00;;;;;;5033614;28;20111;-70
2021/07/05 06:28:49;;;;;;;2.15;1.20;;;21.20;64.00;;;;;;5024287;28;20045;-70
2021/07/05 06:31:15;;;;;;;4.50;1.33;;;21.30;64.10;;;;;;5028704;28;20381;-70
2021/07/05 06:33:41;;;;;;;3.55;1.35;;;21.30;64.00;;;;;;5024079;28;20084;-70
2021/07/05 06:36:07;;;;;;;2.30;1.30;;;21.30;64.00;;;;;;5034334;28;20488;-70
2021/07/05 06:38:33;;;;;;;3.83;1.23;;;21.30;64.10;;;;;;5044623;28;20546;-70
2021/07/05 06:40:59;;;;;;;2.30;1.20;;;21.30;64.00;;;;;;5034158;28;20112;-71
2021/07/05 06:43:25;;;;;;;3.03;1.15;;;21.30;64.00;;;;;;5022877;28;20041;-70
2021/07/05 06:45:51;;;;;;;3.25;1.30;;;21.30;64.00;;;;;;5031494;28;20533;-70
2021/07/05 06:48:17;;;;;;;2.10;1.27;;;21.30;64.00;;;;;;5029866;28;20095;-70
2021/07/05 06:50:43;;;;;;;2.42;1.30;;;21.30;64.10;;;;;;5039996;28;20029;-71
2021/07/05 06:53:09;;;;;;;2.25;1.27;;;21.30;64.10;;;;;;5039659;28;20025;-69
2021/07/05 06:55:35;;;;;;;2.42;1.30;;;21.30;64.10;;;;;;5040665;28;20034;-68
2021/07/05 06:58:01;;;;;;;1.95;1.15;;;21.30;64.20;;;;;;5040972;28;20049;-69
2021/07/05 07:00:28;;;;;;;2.30;1.27;;;21.30;64.10;;;;;;5042487;28;20060;-69
2021/07/05 07:02:55;;;;;;;2.33;1.20;;;21.30;64.10;;;;;;5027717;28;20079;-71
2021/07/05 07:05:22;;;;;;;2.60;1.17;;;21.30;64.10;;;;;;5047576;28;20112;-72
2021/07/05 07:07:50;;;;;;;2.63;1.30;;;21.30;64.10;;;;;;5040992;28;20025;-72
2021/07/05 07:10:18;;;;;;;2.10;1.20;;;21.30;64.10;;;;;;5012944;28;20470;-69
2021/07/05 07:12:52;;;;;;;2.95;1.25;;;21.30;64.10;;;;;;5038064;28;20147;-68
2021/07/05 07:15:21;;;;;;;2.65;1.27;;;21.30;64.10;;;;;;5029095;28;20200;-68
2021/07/05 07:17:51;;;;;;;2.28;1.20;;;21.30;64.10;;;;;;5032227;28;20036;-69
2021/07/05 07:20:17;;;;;;;2.83;1.40;;;21.40;64.10;;;;;;5032884;28;20063;-68
2021/07/05 07:22:43;;;;;;;3.00;1.25;;;21.40;64.10;;;;;;5033553;28;20032;-66
2021/07/05 07:25:29;;;;;;;2.53;1.30;;;21.40;64.00;;;;;;5033670;28;20037;-66
2021/07/05 07:27:55;;;;;;;2.67;1.15;;;21.40;64.00;;;;;;5016208;28;20034;-69
2021/07/05 07:30:20;;;;;;;2.83;1.27;;;21.40;64.00;;;;;;5045636;28;20112;-71
2021/07/05 07:32:47;;;;;;;1.95;1.10;;;21.40;64.10;;;;;;5021928;28;20092;-68
2021/07/05 07:35:15;;;;;;;3.47;1.38;;;21.50;64.00;;;;;;5044255;28;20041;-71
2021/07/05 07:37:47;;;;;;;3.40;1.50;;;21.40;64.10;;;;;;5030986;28;20055;-72
2021/07/05 07:40:15;;;;;;;1.90;1.05;;;21.40;64.00;;;;;;5029794;28;20400;-73
2021/07/05 07:42:42;;;;;;;3.63;1.30;;;21.50;64.00;;;;;;5030182;28;20083;-73
2021/07/05 07:45:09;;;;;;;2.25;1.33;;;21.50;63.80;;;;;;5030401;28;20033;-75
2021/07/05 07:47:35;;;;;;;2.53;1.30;;;21.50;63.90;;;;;;5016279;28;20109;-74
2021/07/05 07:50:02;;;;;;;2.10;1.20;;;21.50;63.90;;;;;;5028809;28;20112;-71
2021/07/05 07:52:28;;;;;;;2.90;1.30;;;21.50;63.70;;;;;;5031034;28;20022;-70
2021/07/05 07:54:53;;;;;;;3.42;1.35;;;21.50;63.90;;;;;;5038986;28;20049;-69
2021/07/05 07:57:19;;;;;;;3.13;1.27;;;21.50;63.90;;;;;;5021709;28;20025;-72
2021/07/05 07:59:45;;;;;;;3.33;1.40;;;21.50;63.70;;;;;;5028185;28;20075;-77
2021/07/05 08:02:11;;;;;;;2.50;1.10;;;21.50;63.70;;;;;;5026972;28;20092;-71
2021/07/05 08:04:40;;;;;;;2.13;1.20;;;21.50;63.70;;;;;;5026038;28;20029;-74
2021/07/05 08:07:06;;;;;;;2.50;1.20;;;21.50;63.60;;;;;;5025802;28;20057;-74
2021/07/05 08:09:33;;;;;;;3.67;1.55;;;21.50;63.50;;;;;;5019462;28;20033;-72
2021/07/05 08:12:00;;;;;;;2.88;1.15;;;21.60;63.60;;;;;;5023497;28;21176;-73
2021/07/05 08:14:26;;;;;;;2.97;1.30;;;21.60;63.50;;;;;;5017453;28;20548;-73
2021/07/05 08:16:52;;;;;;;2.78;1.33;;;21.60;63.50;;;;;;5011396;28;20120;-73
2021/07/05 08:19:27;;;;;;;2.55;1.35;;;21.60;63.40;;;;;;5014951;28;20474;-72
2021/07/05 08:21:52;;;;;;;3.50;1.33;;;21.60;63.40;;;;;;5025022;28;20064;-74
2021/07/05 08:24:18;;;;;;;4.40;1.80;;;21.60;63.40;;;;;;5015687;28;20445;-73
2021/07/05 08:26:43;;;;;;;2.78;1.25;;;21.60;63.30;;;;;;5033866;28;20035;-74
2021/07/05 08:29:09;;;;;;;2.78;1.27;;;21.60;63.40;;;;;;5034442;28;20095;-74
2021/07/05 08:31:34;;;;;;;3.35;1.70;;;21.70;63.20;;;;;;5035176;28;20021;-74
2021/07/05 08:34:01;;;;;;;3.33;1.20;;;21.70;63.20;;;;;;5029448;28;20097;-73
2021/07/05 08:36:27;;;;;;;5.00;1.52;;;21.70;63.20;;;;;;5029398;28;20041;-78
2021/07/05 08:38:53;;;;;;;2.42;1.25;;;21.70;63.00;;;;;;5037175;28;20029;-76
2021/07/05 08:41:20;;;;;;;2.35;1.00;;;21.80;63.00;;;;;;5029032;28;20401;-76
2021/07/05 08:43:47;;;;;;;3.88;1.48;;;21.80;62.90;;;;;;5024405;28;20047;-76
2021/07/05 08:46:16;;;;;;;4.45;1.38;;;21.90;62.80;;;;;;5024455;28;20396;-75
2021/07/05 08:48:43;;;;;;;4.18;1.15;;;21.90;62.90;;;;;;5028286;28;20451;-76
2021/07/05 08:51:13;;;;;;;2.65;1.27;;;21.90;63.00;;;;;;5036785;28;20537;-76
2021/07/05 08:53:40;;;;;;;5.50;1.50;;;21.90;63.00;;;;;;5034124;28;20064;-74
2021/07/05 08:56:07;;;;;;;2.40;1.13;;;22.00;63.00;;;;;;5034177;28;20389;-74
2021/07/05 08:58:33;;;;;;;4.25;1.30;;;22.00;63.10;;;;;;5036257;28;20029;-75
2021/07/05 09:00:58;;;;;;;3.15;1.40;;;22.00;63.00;;;;;;5031017;28;20029;-74
2021/07/05 09:03:26;;;;;;;3.47;1.70;;;22.00;63.00;;;;;;5021969;28;20105;-74
2021/07/05 09:06:06;;;;;;;2.58;1.20;;;22.00;63.00;;;;;;5014107;28;20018;-77
2021/07/05 09:08:35;;;;;;;3.97;1.23;;;22.00;63.00;;;;;;5014579;28;20500;-70
2021/07/05 09:11:00;;;;;;;3.47;1.48;;;22.00;63.00;;;;;;5017091;28;20034;-73
2021/07/05 09:13:28;;;;;;;2.47;1.23;;;22.00;62.90;;;;;;5014509;28;20500;-76
2021/07/05 09:15:55;;;;;;;3.55;1.20;;;22.00;62.80;;;;;;5013949;28;20428;-72
2021/07/05 09:18:29;;;;;;;3.88;1.38;;;22.00;62.80;;;;;;5029198;28;20029;-74
2021/07/05 09:21:07;;;;;;;3.45;1.55;;;22.00;62.80;;;;;;5033695;28;20473;-74
2021/07/05 09:23:33;;;;;;;5.72;1.23;;;22.00;62.80;;;;;;5025543;28;20040;-75
2021/07/05 09:25:58;;;;;;;6.60;1.35;;;22.10;62.80;;;;;;5018406;28;20393;-71
2021/07/05 09:28:24;;;;;;;4.13;1.30;;;22.10;62.80;;;;;;5028988;28;20056;-74
2021/07/05 09:30:52;;;;;;;3.38;1.40;;;22.10;62.80;;;;;;5013061;28;20408;-72
2021/07/05 09:33:22;;;;;;;5.55;1.30;;;22.10;62.80;;;;;;5023339;28;20081;-74
2021/07/05 09:36:01;;;;;;;3.67;1.20;;;22.10;62.70;;;;;;5031588;28;20085;-73
2021/07/05 09:38:41;;;;;;;2.20;1.15;;;22.20;62.70;;;;;;5026759;28;20030;-72
2021/07/05 09:41:32;;;;;;;3.05;1.20;;;22.20;62.60;;;;;;5029869;28;20159;-75
2021/07/05 09:44:01;;;;;;;2.88;1.50;;;22.20;62.60;;;;;;5032768;28;20026;-72
2021/07/05 09:46:50;;;;;;;3.80;1.48;;;22.20;62.70;;;;;;5040152;28;20200;-76
2021/07/05 09:49:23;;;;;;;3.53;1.42;;;22.20;62.70;;;;;;5013954;28;20026;-74
2021/07/05 09:52:08;;;;;;;3.05;1.30;;;22.20;62.70;;;;;;5013135;28;20026;-72
2021/07/05 09:54:36;;;;;;;2.88;1.30;;;22.20;62.70;;;;;;5023987;28;20026;-74
2021/07/05 09:57:05;;;;;;;3.55;1.45;;;22.20;62.70;;;;;;5036784;28;20059;-74
2021/07/05 09:59:31;;;;;;;2.58;1.23;;;22.20;62.80;;;;;;5028634;28;20025;-75
2021/07/05 10:01:58;;;;;;;3.40;1.55;;;22.20;62.80;;;;;;5043703;28;20025;-73
2021/07/05 10:04:28;;;;;;;3.33;1.40;;;22.20;62.90;;;;;;5018142;28;20037;-70
2021/07/05 10:06:59;;;;;;;5.15;1.95;;;22.20;62.80;;;;;;5039943;28;20059;-70
2021/07/05 10:09:31;;;;;;;7.93;2.35;;;22.10;63.60;;;;;;5040562;28;20018;-76
2021/07/05 10:12:13;;;;;;;5.32;1.88;;;21.90;64.90;;;;;;5030862;28;20094;-68
2021/07/05 10:14:39;;;;;;;4.80;2.30;;;21.70;65.40;;;;;;5026356;28;20130;-70
2021/07/05 10:17:15;;;;;;;7.25;2.60;;;21.60;66.00;;;;;;5024123;28;20033;-68
2021/07/05 10:19:42;;;;;;;6.45;2.60;;;21.60;66.50;;;;;;5035758;28;20037;-63
2021/07/05 10:22:10;;;;;;;8.38;2.70;;;21.50;64.40;;;;;;5026587;28;20078;-63
2021/07/05 10:24:37;;;;;;;10.73;2.88;;;21.50;62.80;;;;;;5023584;28;20120;-64
2021/07/05 10:27:04;;;;;;;7.18;2.80;;;21.20;63.30;;;;;;5024771;28;20044;-69
2021/07/05 10:29:32;;;;;;;10.10;2.58;;;21.10;63.60;;;;;;5037984;28;20105;-68
2021/07/05 10:31:58;;;;;;;8.57;2.45;;;21.10;62.60;;;;;;5036676;28;20096;-75
2021/07/05 10:34:24;;;;;;;9.23;2.55;;;21.00;62.40;;;;;;5030384;28;20033;-70
2021/07/05 10:36:51;;;;;;;8.05;2.58;;;20.90;63.80;;;;;;5044913;28;20033;-72
2021/07/05 10:39:17;;;;;;;6.03;2.13;;;20.90;63.10;;;;;;5018992;28;20421;-71
2021/07/05 10:41:42;;;;;;;6.07;2.05;;;20.90;63.50;;;;;;5029494;28;20021;-70
2021/07/05 10:44:10;;;;;;;6.20;1.95;;;20.80;63.30;;;;;;5031129;28;20022;-70
2021/07/05 10:46:43;;;;;;;8.43;2.17;;;20.90;63.00;;;;;;5014367;28;20018;-70
2021/07/05 10:49:31;;;;;;;7.13;2.88;;;20.90;63.20;;;;;;5014162;28;20393;-72
2021/07/05 10:52:07;;;;;;;8.23;2.25;;;20.80;63.70;;;;;;5029659;28;20498;-72
2021/07/05 10:54:44;;;;;;;9.63;2.53;;;20.80;63.60;;;;;;5047195;28;20439;-72
2021/07/05 10:57:10;;;;;;;5.72;2.05;;;20.80;63.10;;;;;;5029994;28;20036;-71
2021/07/05 10:59:38;;;;;;;6.68;2.40;;;20.80;63.20;;;;;;5015810;28;20109;-73
2021/07/05 11:02:41;;;;;;;6.40;2.10;;;20.90;63.40;;;;;;5016824;28;20030;-70
2021/07/05 11:05:30;;;;;;;9.27;2.17;;;20.70;64.20;;;;;;5027256;28;20061;-69
2021/07/05 11:08:14;;;;;;;6.93;2.17;;;20.90;62.80;;;;;;5032125;28;20030;-74
2021/07/05 11:10:40;;;;;;;9.10;2.35;;;20.90;62.10;;;;;;5032669;28;20029;-73
2021/07/05 11:13:06;;;;;;;5.40;1.90;;;20.80;62.10;;;;;;5029259;28;20025;-74
2021/07/05 11:15:58;;;;;;;6.75;2.28;;;20.80;61.90;;;;;;5031179;28;20044;-73
2021/07/05 11:18:36;;;;;;;10.85;2.50;;;20.90;61.40;;;;;;5019473;28;20026;-74
2021/07/05 11:21:24;;;;;;;4.95;2.05;;;20.80;61.20;;;;;;5019363;28;20029;-73
2021/07/05 11:23:59;;;;;;;11.35;2.63;;;20.70;61.10;;;;;;5026746;28;20108;-71
2021/07/05 11:26:43;;;;;;;10.77;2.30;;;20.70;60.80;;;;;;5020330;28;20060;-73
2021/07/05 11:29:15;;;;;;;6.88;2.33;;;20.70;60.60;;;;;;5032904;28;20124;-72
2021/07/05 11:31:56;;;;;;;8.85;2.92;;;20.60;61.40;;;;;;5016236;28;20022;-68
2021/07/05 11:34:28;;;;;;;7.55;1.70;;;20.90;60.60;;;;;;5025336;28;20080;-73
2021/07/05 11:37:20;;;;;;;7.03;1.65;;;21.00;60.50;;;;;;5020521;28;20018;-73
2021/07/05 11:39:48;;;;;;;8.52;1.85;;;21.10;60.20;;;;;;5027597;28;20036;-71
2021/07/05 11:42:37;;;;;;;11.65;2.40;;;21.10;60.10;;;;;;5027994;28;20030;-68
2021/07/05 11:45:03;;;;;;;8.57;1.63;;;21.10;60.20;;;;;;5022897;28;20068;-74
2021/07/05 11:47:42;;;;;;;7.53;2.00;;;21.10;60.50;;;;;;5031900;28;20032;-72
2021/07/05 11:50:24;;;;;;;6.10;1.90;;;21.10;60.80;;;;;;5029099;28;20108;-71
2021/07/05 11:52:51;;;;;;;4.85;1.65;;;21.10;60.40;;;;;;5020941;28;20408;-70
2021/07/05 11:55:19;;;;;;;6.60;1.70;;;21.00;63.60;;;;;;5026673;28;20480;-71
2021/07/05 11:58:01;;;;;;;5.88;1.92;;;21.00;61.90;;;;;;5025856;28;20048;-73
2021/07/05 12:00:29;;;;;;;6.78;2.00;;;21.00;63.10;;;;;;5026872;28;20049;-74
2021/07/05 12:03:11;;;;;;;6.00;1.83;;;21.00;62.10;;;;;;5033984;28;20094;-74
2021/07/05 12:05:42;;;;;;;8.73;1.92;;;21.20;61.10;;;;;;5017016;28;20036;-70
2021/07/05 12:08:13;;;;;;;5.80;2.10;;;21.20;61.30;;;;;;5031116;28;20040;-74
2021/07/05 12:10:41;;;;;;;9.73;2.58;;;21.20;60.50;;;;;;5047128;28;20026;-69
2021/07/05 12:13:17;;;;;;;8.70;1.98;;;21.00;62.20;;;;;;5026185;28;20049;-71
2021/07/05 12:15:54;;;;;;;7.47;1.90;;;21.10;61.10;;;;;;5039970;28;20477;-71
2021/07/05 12:18:19;;;;;;;6.78;2.10;;;21.10;60.60;;;;;;5018054;28;20393;-70
2021/07/05 12:20:59;;;;;;;5.70;1.83;;;21.20;59.60;;;;;;5022920;28;20029;-67
2021/07/05 12:23:33;;;;;;;9.70;2.03;;;21.10;59.30;;;;;;5024613;28;20490;-69
2021/07/05 12:26:14;;;;;;;8.18;2.45;;;21.00;62.10;;;;;;5028359;28;20039;-67
2021/07/05 12:29:08;;;;;;;6.05;1.65;;;21.00;61.40;;;;;;5028116;28;20043;-70
2021/07/05 12:31:34;;;;;;;11.13;2.08;;;21.10;60.10;;;;;;5013797;28;20026;-72
2021/07/05 12:34:02;;;;;;;5.00;1.70;;;21.20;59.30;;;;;;5011723;28;20553;-70
2021/07/05 12:36:30;;;;;;;5.95;2.00;;;21.20;59.00;;;;;;5011108;28;20022;-72
2021/07/05 12:38:59;;;;;;;6.95;2.15;;;21.20;58.20;;;;;;5010847;28;20056;-72
2021/07/05 12:41:31;;;;;;;7.40;1.67;;;21.10;57.70;;;;;;5012952;28;20030;-69
2021/07/05 12:44:14;;;;;;;11.27;2.30;;;21.10;57.50;;;;;;5023860;28;20445;-73
2021/07/05 12:46:40;;;;;;;8.43;2.42;;;21.10;58.10;;;;;;5031282;28;20029;-69
2021/07/05 12:49:06;;;;;;;7.35;1.85;;;21.10;59.10;;;;;;5030877;28;20075;-70
2021/07/05 12:51:32;;;;;;;7.05;2.00;;;21.00;58.90;;;;;;5030757;28;20029;-71